createdAt,value
2022-08-02T00:01:07.137Z,4.35
2022-08-02T00:06:12.341Z,3.90
2022-08-02T00:11:16.059Z,2.75
2022-08-02T00:16:19.903Z,7.00
2022-08-02T00:21:42.438Z,5.07
2022-08-02T00:26:46.180Z,3.12
2022-08-02T00:31:49.898Z,5.07
2022-08-02T00:36:55.006Z,2.08
2022-08-02T00:41:58.778Z,4.62
2022-08-02T00:47:02.778Z,1.90
2022-08-02T00:52:08.756Z,3.40
2022-08-02T00:57:12.917Z,5.37
2022-08-02T01:02:17.243Z,1.77
2022-08-02T01:07:22.665Z,3.10
2022-08-02T01:12:26.345Z,4.90
2022-08-02T01:17:37.411Z,3.28
2022-08-02T01:23:07.678Z,1.95
2022-08-02T01:28:29.277Z,3.65
2022-08-02T01:33:40.062Z,4.00
2022-08-02T01:38:47.655Z,4.87
2022-08-02T01:43:56.763Z,4.80
2022-08-02T01:49:04.371Z,5.07
2022-08-02T01:54:15.472Z,3.95
2022-08-02T01:59:23.581Z,4.45
2022-08-02T02:04:30.095Z,4.97
2022-08-02T02:09:50.346Z,5.57
2022-08-02T02:14:57.056Z,2.28
2022-08-02T02:20:02.751Z,2.47
2022-08-02T02:25:07.778Z,3.83
2022-08-02T02:30:17.990Z,3.25
2022-08-02T02:35:23.027Z,4.78
2022-08-02T02:40:28.618Z,4.80
2022-08-02T02:45:35.768Z,4.90
2022-08-02T02:50:40.488Z,1.92
2022-08-02T02:56:02.550Z,4.10
2022-08-02T03:01:56.018Z,5.28
2022-08-02T03:06:49.373Z,7.12
2022-08-02T03:11:54.943Z,3.12
2022-08-02T03:17:00.079Z,19.37
2022-08-02T03:22:03.813Z,7.72
2022-08-02T03:27:08.062Z,9.40
2022-08-02T03:32:13.511Z,3.80
2022-08-02T03:37:17.931Z,5.85
2022-08-02T03:42:23.066Z,4.18
2022-08-02T03:47:29.421Z,4.93
2022-08-02T03:52:34.565Z,8.05
2022-08-02T03:57:38.939Z,14.00
2022-08-02T04:02:44.050Z,9.27
2022-08-02T04:08:34.266Z,5.28
2022-08-02T04:13:13.116Z,5.68
2022-08-02T04:18:23.605Z,7.57
2022-08-02T04:23:29.018Z,6.32
2022-08-02T04:28:37.364Z,5.17
2022-08-02T04:33:42.725Z,8.75
2022-08-02T04:38:46.444Z,4.97
2022-08-02T04:43:52.578Z,6.40
2022-08-02T04:48:57.639Z,6.28
2022-08-02T04:54:02.813Z,5.80
2022-08-02T04:59:10.197Z,10.25
2022-08-02T05:04:15.340Z,14.48
2022-08-02T05:09:19.196Z,6.05
2022-08-02T05:14:22.928Z,10.95
2022-08-02T05:19:28.448Z,11.50
2022-08-02T05:24:32.323Z,10.23
2022-08-02T05:29:36.070Z,7.60
2022-08-02T05:34:41.233Z,19.25
2022-08-02T05:39:55.433Z,10.82
2022-08-02T05:45:00.197Z,11.45
2022-08-02T05:50:06.857Z,13.77
2022-08-02T05:55:14.825Z,10.77
2022-08-02T06:00:19.389Z,12.90
2022-08-02T06:05:28.397Z,10.27
2022-08-02T06:10:33.327Z,12.48
2022-08-02T06:15:42.558Z,12.57
2022-08-02T06:22:35.080Z,9.27
2022-08-02T06:31:29.912Z,15.20
2022-08-02T06:36:43.215Z,14.77
2022-08-02T06:41:50.403Z,14.25
2022-08-02T06:47:11.489Z,12.88
2022-08-02T06:52:19.241Z,14.48
2022-08-02T06:57:23.291Z,18.05
2022-08-02T07:02:27.063Z,22.48
2022-08-02T07:07:32.409Z,19.85
2022-08-02T07:12:36.539Z,13.18
2022-08-02T07:17:40.566Z,11.75
2022-08-02T07:22:45.636Z,14.35
2022-08-02T07:27:49.413Z,9.30
2022-08-02T07:32:53.099Z,7.68
2022-08-02T07:38:02.173Z,8.20
2022-08-02T07:43:06.630Z,8.68
2022-08-02T07:48:11.423Z,7.28
2022-08-02T07:53:16.532Z,5.32
2022-08-02T07:58:20.297Z,7.85
2022-08-02T08:03:23.978Z,8.70
2022-08-02T08:08:29.121Z,4.57
2022-08-02T08:13:33.002Z,4.80
2022-08-02T08:18:36.752Z,6.45
2022-08-02T08:23:41.784Z,4.12
2022-08-02T08:28:45.488Z,4.85
2022-08-02T08:33:49.159Z,3.58
2022-08-02T08:38:54.258Z,4.20
2022-08-02T08:44:00.085Z,4.80
2022-08-02T08:49:10.314Z,2.65
2022-08-02T08:54:17.970Z,2.10
2022-08-02T08:59:21.772Z,5.40
2022-08-02T09:04:25.544Z,3.45
2022-08-02T09:09:30.624Z,4.55
2022-08-02T09:14:34.513Z,6.87
2022-08-02T09:19:38.326Z,3.50
2022-08-02T09:24:52.270Z,5.65
2022-08-02T09:30:12.770Z,4.47
2022-08-02T09:36:05.174Z,2.00
2022-08-02T09:40:58.281Z,2.08
2022-08-02T09:46:10.995Z,4.07
2022-08-02T09:51:17.780Z,1.58
2022-08-02T09:56:35.439Z,3.17
2022-08-02T10:01:40.293Z,1.73
2022-08-02T10:06:54.083Z,1.52
2022-08-02T10:12:00.678Z,3.10
2022-08-02T10:17:05.952Z,5.97
2022-08-02T10:22:12.282Z,13.00
2022-08-02T10:27:20.048Z,2.75
2022-08-02T10:32:29.674Z,2.72
2022-08-02T10:37:36.564Z,0.85
2022-08-02T10:42:49.115Z,0.82
2022-08-02T10:48:01.269Z,1.98
2022-08-02T10:53:24.899Z,2.37
2022-08-02T10:58:32.694Z,1.67
2022-08-02T11:03:40.057Z,3.97
2022-08-02T11:08:44.250Z,2.28
2022-08-02T11:14:07.109Z,1.75
2022-08-02T11:19:11.899Z,2.12
2022-08-02T11:24:27.694Z,4.65
2022-08-02T11:29:38.485Z,2.50
2022-08-02T11:34:44.084Z,2.05
2022-08-02T11:39:51.788Z,2.37
2022-08-02T11:44:57.316Z,2.62
2022-08-02T11:50:08.042Z,0.88
2022-08-02T11:55:12.455Z,1.85
2022-08-02T12:00:19.502Z,1.35
2022-08-02T12:05:44.789Z,2.72
2022-08-02T12:10:49.871Z,0.80
2022-08-02T12:16:14.951Z,4.32
2022-08-02T12:21:23.741Z,1.87
2022-08-02T12:26:27.494Z,7.28
2022-08-02T12:31:56.084Z,2.28
2022-08-02T12:37:04.089Z,6.05
2022-08-02T12:42:10.141Z,2.35
2022-08-02T12:47:15.563Z,3.03
2022-08-02T12:52:21.088Z,2.40
2022-08-02T12:57:25.162Z,7.97
2022-08-02T13:02:31.783Z,2.35
2022-08-02T13:07:35.563Z,1.30
2022-08-02T13:12:41.435Z,3.08
2022-08-02T13:17:46.625Z,4.25
2022-08-02T13:22:51.201Z,7.68
2022-08-02T13:27:57.207Z,4.17
2022-08-02T13:33:02.273Z,4.62
2022-08-02T13:38:06.650Z,4.18
2022-08-02T13:43:10.376Z,2.40
2022-08-02T13:48:17.102Z,3.87
2022-08-02T13:53:24.408Z,2.58
2022-08-02T13:58:28.118Z,3.85
2022-08-02T14:04:07.540Z,4.47
2022-08-02T14:08:56.877Z,3.47
2022-08-02T14:14:00.690Z,2.65
2022-08-02T14:19:05.867Z,3.83
2022-08-02T14:24:20.876Z,5.45
2022-08-02T14:29:24.612Z,1.60
2022-08-02T14:34:30.257Z,2.10
2022-08-02T14:39:43.449Z,2.35
2022-08-02T14:44:57.699Z,4.97
2022-08-02T14:50:02.900Z,3.87
2022-08-02T14:55:07.322Z,6.22
2022-08-02T15:00:12.332Z,6.65
2022-08-02T15:05:17.682Z,4.68
2022-08-02T15:10:22.287Z,1.95
2022-08-02T15:15:26.190Z,4.07
2022-08-02T15:20:32.093Z,3.85
2022-08-02T15:25:41.491Z,3.90
2022-08-02T15:30:45.772Z,4.62
2022-08-02T15:35:51.225Z,3.05
2022-08-02T15:40:55.228Z,4.50
2022-08-02T15:45:59.289Z,5.03
2022-08-02T15:51:04.502Z,2.05
2022-08-02T15:56:12.775Z,10.82
2022-08-02T16:01:16.932Z,4.85
2022-08-02T16:06:22.089Z,3.75
2022-08-02T16:11:29.375Z,6.57
2022-08-02T16:16:34.976Z,6.37
2022-08-02T16:21:40.446Z,1.42
2022-08-02T16:26:44.445Z,5.03
2022-08-02T16:31:48.441Z,4.03
2022-08-02T16:36:53.837Z,5.53
2022-08-02T16:41:57.668Z,4.70
2022-08-02T16:47:02.136Z,5.18
2022-08-02T16:52:07.699Z,4.12
2022-08-02T16:57:14.613Z,6.87
2022-08-02T17:02:19.955Z,9.95
2022-08-02T17:08:07.352Z,4.65
2022-08-02T17:12:54.689Z,9.70
2022-08-02T17:18:01.115Z,5.82
2022-08-02T17:23:06.386Z,2.78
2022-08-02T17:28:10.237Z,14.20
2022-08-02T17:33:14.094Z,6.75
2022-08-02T17:38:26.588Z,4.00
2022-08-02T17:43:31.180Z,11.65
2022-08-02T17:48:50.322Z,8.30
2022-08-02T17:54:00.922Z,6.57
2022-08-02T17:59:12.430Z,6.30
2022-08-02T18:04:27.511Z,6.57
2022-08-02T18:09:33.202Z,4.90
2022-08-02T18:14:38.324Z,4.73
2022-08-02T18:19:57.326Z,6.55
2022-08-02T18:25:09.816Z,3.50
2022-08-02T18:30:14.160Z,4.55
2022-08-02T18:35:25.452Z,4.82
2022-08-02T18:46:05.502Z,7.60
2022-08-02T18:51:02.012Z,8.05
2022-08-02T18:56:07.772Z,7.70
2022-08-02T19:01:14.780Z,7.72
2022-08-02T19:06:27.647Z,11.02
2022-08-02T19:11:35.213Z,9.83
2022-08-02T19:16:39.770Z,9.48
2022-08-02T19:22:17.977Z,8.93
2022-08-02T19:27:14.126Z,9.52
2022-08-02T19:32:42.722Z,7.35
2022-08-02T19:37:43.591Z,13.65
2022-08-02T19:44:21.980Z,10.52
2022-08-02T19:48:24.159Z,10.07
2022-08-02T19:53:46.619Z,15.63
2022-08-02T19:58:55.688Z,9.98
2022-08-02T20:04:01.814Z,9.85
2022-08-02T20:09:06.363Z,14.32
2022-08-02T20:14:11.417Z,9.30
2022-08-02T20:19:17.160Z,12.97
2022-08-02T20:24:26.574Z,10.35
2022-08-02T20:29:43.232Z,10.38
2022-08-02T20:34:53.262Z,8.70
2022-08-02T20:39:57.179Z,8.93
2022-08-02T20:45:02.513Z,7.93
2022-08-02T20:50:30.749Z,9.50
2022-08-02T20:55:40.942Z,11.27
2022-08-02T21:00:46.648Z,17.65
2022-08-02T21:05:54.902Z,8.82
2022-08-02T21:10:59.948Z,12.13
2022-08-02T21:16:08.465Z,11.18
2022-08-02T21:21:14.751Z,14.05
2022-08-02T21:26:27.851Z,15.68
2022-08-02T21:31:36.454Z,8.38
2022-08-02T21:36:40.565Z,14.23
2022-08-02T21:41:46.594Z,8.50
2022-08-02T21:46:54.788Z,7.95
2022-08-02T21:51:58.890Z,9.60
2022-08-02T21:57:02.598Z,13.20
2022-08-02T22:02:09.255Z,9.77
2022-08-02T22:07:12.981Z,8.10
2022-08-02T22:12:19.195Z,8.50
2022-08-02T22:17:49.796Z,16.30
2022-08-02T22:22:50.459Z,12.60
2022-08-02T22:28:34.750Z,9.35
2022-08-02T22:33:37.536Z,7.03
2022-08-02T22:38:44.527Z,12.93
2022-08-02T22:43:49.133Z,13.50
2022-08-02T22:48:55.275Z,6.87
2022-08-02T22:53:59.924Z,9.35
2022-08-02T23:04:23.985Z,14.75
2022-08-02T23:09:27.707Z,9.10
2022-08-02T23:14:31.590Z,8.13
2022-08-02T23:19:51.792Z,8.25
2022-08-02T23:24:56.351Z,12.98
2022-08-02T23:30:00.724Z,9.35
2022-08-02T23:35:06.628Z,10.30
2022-08-02T23:40:11.043Z,10.32
2022-08-02T23:45:14.751Z,13.13
2022-08-02T23:50:20.079Z,12.80
2022-08-02T23:55:23.821Z,10.88
